Time;durP1;ratioP1;P1;durP2;ratioP2;P2;SDS_P1;SDS_P2;PMS_P1;PMS_P2;Temp;Humidity;BMP_temperature;BMP_pressure;BME280_temperature;BME280_humidity;BME280_pressure;Samples;Min_cycle;Max_cycle;Signal;HPM_P1;HPM_P2
2023/09/25 00:00:37;;;;;;;6.53;2.10;;;14.10;99.90;;;;;;5055335;28;20037;-81
2023/09/25 00:03:04;;;;;;;6.03;2.50;;;14.10;99.90;;;;;;5038583;28;20078;-81
2023/09/25 00:05:30;;;;;;;7.57;2.25;;;14.00;99.90;;;;;;5058907;28;20088;-81
2023/09/25 00:07:56;;;;;;;6.97;2.78;;;14.00;99.90;;;;;;5073174;28;20074;-81
2023/09/25 00:10:22;;;;;;;5.45;2.20;;;14.00;99.90;;;;;;5091921;28;20173;-82
2023/09/25 00:12:48;;;;;;;5.60;2.28;;;14.00;99.90;;;;;;5069158;28;20037;-82
2023/09/25 00:15:15;;;;;;;5.18;1.90;;;13.90;99.90;;;;;;5064057;28;20047;-81
2023/09/25 00:17:42;;;;;;;5.93;2.20;;;13.90;99.90;;;;;;5056476;28;20054;-81
2023/09/25 00:20:10;;;;;;;7.70;2.80;;;13.90;99.90;;;;;;5058207;28;20040;-81
2023/09/25 00:22:37;;;;;;;7.13;2.60;;;13.90;99.90;;;;;;5058353;28;20036;-81
2023/09/25 00:25:03;;;;;;;5.25;2.00;;;13.90;99.90;;;;;;5074152;28;20362;-81
2023/09/25 00:27:31;;;;;;;4.32;1.67;;;13.80;99.90;;;;;;5057426;28;20094;-81
2023/09/25 00:29:57;;;;;;;4.85;2.33;;;13.90;99.90;;;;;;5056807;28;20036;-80
2023/09/25 00:32:23;;;;;;;7.45;2.45;;;13.90;99.90;;;;;;5058160;28;20094;-80
2023/09/25 00:34:48;;;;;;;6.40;2.10;;;14.10;99.90;;;;;;5074824;28;20089;-81
2023/09/25 00:37:14;;;;;;;5.97;2.92;;;14.00;99.90;;;;;;5055453;28;20045;-81
2023/09/25 00:39:42;;;;;;;4.80;2.40;;;14.10;99.90;;;;;;5071965;28;20545;-81
2023/09/25 00:42:08;;;;;;;4.88;2.25;;;14.00;99.90;;;;;;5057889;28;20044;-81
2023/09/25 00:44:33;;;;;;;3.90;1.98;;;13.90;99.90;;;;;;5091304;28;20045;-82
2023/09/25 00:46:59;;;;;;;6.85;2.92;;;14.00;99.90;;;;;;5056837;28;20052;-81
2023/09/25 00:49:26;;;;;;;5.30;2.33;;;14.00;99.90;;;;;;5056213;28;20377;-81
2023/09/25 00:51:52;;;;;;;4.47;2.50;;;14.00;99.90;;;;;;5057586;28;20075;-81
2023/09/25 00:54:18;;;;;;;4.18;2.20;;;14.10;99.90;;;;;;5057565;28;20037;-81
2023/09/25 00:56:46;;;;;;;5.78;2.28;;;14.00;99.90;;;;;;5059743;28;20413;-81
2023/09/25 00:59:12;;;;;;;5.80;2.80;;;13.90;99.90;;;;;;5055143;28;20048;-81
2023/09/25 01:01:38;;;;;;;5.22;2.35;;;13.80;99.90;;;;;;5057401;28;20044;-81
2023/09/25 01:04:04;;;;;;;5.82;2.72;;;13.70;99.90;;;;;;5057295;28;20037;-82
2023/09/25 01:06:30;;;;;;;4.70;2.00;;;13.70;99.90;;;;;;5055720;28;20067;-81
2023/09/25 01:08:56;;;;;;;7.28;2.45;;;13.80;99.90;;;;;;5072649;28;20401;-81
2023/09/25 01:11:22;;;;;;;5.70;2.60;;;13.80;99.90;;;;;;5073084;28;20033;-81
2023/09/25 01:13:48;;;;;;;6.93;2.60;;;13.80;99.90;;;;;;5057204;28;20079;-81
2023/09/25 01:16:13;;;;;;;6.55;2.22;;;13.70;99.90;;;;;;5072776;28;20466;-81
2023/09/25 01:18:39;;;;;;;5.05;2.42;;;13.70;99.90;;;;;;5072698;28;20094;-81
2023/09/25 01:21:04;;;;;;;6.90;2.63;;;13.70;99.90;;;;;;5055254;28;20072;-81
2023/09/25 01:23:30;;;;;;;6.22;3.00;;;13.80;99.90;;;;;;5073727;28;20044;-81
2023/09/25 01:25:56;;;;;;;3.95;2.50;;;13.80;99.90;;;;;;5056276;28;20037;-81
2023/09/25 01:28:21;;;;;;;5.68;2.60;;;13.70;99.90;;;;;;5056845;28;20040;-81
2023/09/25 01:30:47;;;;;;;5.65;2.40;;;13.70;99.90;;;;;;5055068;28;20127;-82
2023/09/25 01:33:13;;;;;;;5.18;2.33;;;13.70;99.90;;;;;;5055994;28;20091;-82
2023/09/25 01:35:39;;;;;;;6.13;2.28;;;13.70;99.90;;;;;;5072834;28;20086;-81
2023/09/25 01:38:04;;;;;;;4.53;2.28;;;13.70;99.90;;;;;;5073388;28;20125;-81
2023/09/25 01:40:31;;;;;;;6.03;2.85;;;13.80;99.90;;;;;;5053975;28;20032;-81
2023/09/25 01:42:56;;;;;;;7.25;2.60;;;13.80;99.90;;;;;;5056545;28;20028;-81
2023/09/25 01:45:23;;;;;;;5.30;2.40;;;13.70;99.90;;;;;;5072490;28;20029;-82
2023/09/25 01:47:50;;;;;;;5.65;2.30;;;13.80;99.90;;;;;;5056287;28;20247;-82
2023/09/25 01:50:17;;;;;;;3.78;2.28;;;13.70;99.90;;;;;;5071996;28;20047;-82
2023/09/25 01:52:43;;;;;;;6.57;2.22;;;13.70;99.90;;;;;;5072006;28;20044;-82
2023/09/25 01:55:09;;;;;;;5.78;2.53;;;13.70;99.90;;;;;;5055530;28;20067;-82
2023/09/25 01:57:35;;;;;;;6.30;2.25;;;13.80;99.90;;;;;;5072428;28;20063;-82
2023/09/25 02:00:00;;;;;;;5.30;2.22;;;13.70;99.90;;;;;;5055777;28;20515;-81
2023/09/25 02:02:26;;;;;;;6.93;2.63;;;13.70;99.90;;;;;;5062213;28;20072;-81
2023/09/25 02:04:51;;;;;;;5.45;2.28;;;13.80;99.90;;;;;;5056455;28;20127;-82
2023/09/25 02:07:18;;;;;;;5.57;2.60;;;13.70;99.90;;;;;;5054294;28;20040;-82
2023/09/25 02:09:45;;;;;;;5.45;2.42;;;13.70;99.90;;;;;;5056074;28;20037;-82
2023/09/25 02:12:11;;;;;;;5.47;2.50;;;13.70;99.90;;;;;;5049268;28;20041;-82
2023/09/25 02:14:36;;;;;;;4.63;2.17;;;13.60;99.90;;;;;;5086468;28;20408;-81
2023/09/25 02:17:02;;;;;;;4.95;2.30;;;13.60;99.90;;;;;;5055869;28;20044;-82
2023/09/25 02:19:28;;;;;;;4.93;2.53;;;13.50;99.90;;;;;;5056107;28;20398;-82
2023/09/25 02:21:54;;;;;;;5.38;2.25;;;13.50;99.90;;;;;;5070487;28;20044;-82
2023/09/25 02:24:21;;;;;;;6.82;2.80;;;13.50;99.90;;;;;;5057066;28;20537;-81
2023/09/25 02:26:47;;;;;;;5.35;2.38;;;13.50;99.90;;;;;;5072217;28;20093;-82
2023/09/25 02:29:13;;;;;;;7.45;2.53;;;13.40;99.90;;;;;;5056034;28;20127;-82
2023/09/25 02:31:39;;;;;;;5.22;2.47;;;13.50;99.90;;;;;;5071500;28;20048;-82
2023/09/25 02:34:06;;;;;;;6.75;2.35;;;13.50;99.90;;;;;;5074867;28;20044;-82
2023/09/25 02:36:33;;;;;;;6.43;2.70;;;13.60;99.90;;;;;;5052865;28;20488;-82
2023/09/25 02:38:59;;;;;;;6.50;2.30;;;13.50;99.90;;;;;;5072263;28;20044;-81
2023/09/25 02:41:25;;;;;;;5.40;2.35;;;13.50;99.90;;;;;;5054845;28;20485;-82
2023/09/25 02:43:50;;;;;;;5.30;2.20;;;13.50;99.90;;;;;;5046289;28;20041;-81
2023/09/25 02:46:16;;;;;;;4.32;2.17;;;13.60;99.90;;;;;;5048104;28;20099;-81
2023/09/25 02:48:41;;;;;;;5.28;2.50;;;13.60;99.90;;;;;;5072085;28;20454;-81
2023/09/25 02:51:07;;;;;;;4.32;2.05;;;13.40;99.90;;;;;;5054691;28;20044;-81
2023/09/25 02:53:32;;;;;;;7.68;2.67;;;13.40;99.90;;;;;;5054274;28;20044;-81
2023/09/25 02:55:58;;;;;;;6.38;3.10;;;13.40;99.90;;;;;;5054325;28;20457;-81
2023/09/25 02:58:24;;;;;;;5.20;2.30;;;13.40;99.90;;;;;;5070981;28;20037;-81
2023/09/25 03:00:49;;;;;;;5.82;2.58;;;13.30;99.90;;;;;;5071623;28;20036;-81
2023/09/25 03:03:15;;;;;;;6.18;2.40;;;13.30;99.90;;;;;;5055501;28;20481;-81
2023/09/25 03:05:41;;;;;;;5.00;2.70;;;13.30;99.90;;;;;;5069948;28;20562;-81
2023/09/25 03:08:06;;;;;;;6.85;2.70;;;13.30;99.90;;;;;;5071846;28;20040;-82
2023/09/25 03:10:32;;;;;;;5.05;2.40;;;13.20;99.90;;;;;;5055161;28;20052;-81
2023/09/25 03:12:57;;;;;;;6.47;2.65;;;13.10;99.90;;;;;;5055164;28;20043;-81
2023/09/25 03:15:24;;;;;;;6.65;2.70;;;13.20;99.90;;;;;;5069933;28;20037;-81
2023/09/25 03:17:49;;;;;;;4.80;2.58;;;13.10;99.90;;;;;;5071659;28;20568;-81
2023/09/25 03:20:15;;;;;;;6.65;2.85;;;13.10;99.90;;;;;;5070851;28;20127;-81
2023/09/25 03:22:45;;;;;;;5.63;2.40;;;13.20;99.90;;;;;;5055076;28;20043;-81
2023/09/25 03:25:12;;;;;;;6.50;2.65;;;13.10;99.90;;;;;;5086149;28;20484;-81
2023/09/25 03:27:39;;;;;;;6.60;2.60;;;13.00;99.90;;;;;;5054880;28;20131;-81
2023/09/25 03:30:05;;;;;;;8.30;3.00;;;13.00;99.90;;;;;;5071199;28;20370;-81
2023/09/25 03:32:31;;;;;;;4.97;2.58;;;13.00;99.90;;;;;;5071707;28;20040;-81
2023/09/25 03:34:57;;;;;;;6.70;2.70;;;13.00;99.90;;;;;;5069834;28;20477;-81
2023/09/25 03:37:23;;;;;;;5.20;2.55;;;13.10;99.90;;;;;;5052891;28;20090;-81
2023/09/25 03:39:48;;;;;;;5.50;2.30;;;13.00;99.90;;;;;;5071618;28;20041;-81
2023/09/25 03:42:14;;;;;;;8.23;2.60;;;12.90;99.90;;;;;;5071679;28;20037;-81
2023/09/25 03:44:39;;;;;;;6.60;2.90;;;12.90;99.90;;;;;;5054973;28;20036;-81
2023/09/25 03:47:05;;;;;;;4.93;2.40;;;12.90;99.90;;;;;;5053901;28;20138;-81
2023/09/25 03:49:31;;;;;;;4.38;1.95;;;12.90;99.90;;;;;;5071422;28;20044;-81
2023/09/25 03:51:56;;;;;;;5.45;2.45;;;13.00;99.90;;;;;;5055147;28;20032;-81
2023/09/25 03:54:22;;;;;;;5.93;2.72;;;13.20;99.90;;;;;;5071726;28;20068;-81
2023/09/25 03:56:48;;;;;;;6.30;2.63;;;13.20;99.90;;;;;;5040463;28;20520;-81
2023/09/25 03:59:13;;;;;;;7.53;2.65;;;13.10;99.90;;;;;;5068289;28;20051;-81
2023/09/25 04:01:39;;;;;;;3.97;1.80;;;13.10;99.90;;;;;;5071630;28;20048;-81
2023/09/25 04:04:06;;;;;;;4.50;2.42;;;13.20;99.90;;;;;;5070590;28;20040;-81
2023/09/25 04:06:33;;;;;;;6.43;2.75;;;13.30;99.90;;;;;;5052987;28;20040;-81
2023/09/25 04:08:59;;;;;;;4.05;2.17;;;13.20;99.90;;;;;;5054792;28;20202;-81
2023/09/25 04:11:24;;;;;;;5.88;2.72;;;13.20;99.90;;;;;;5055765;28;20123;-81
2023/09/25 04:13:50;;;;;;;8.23;3.15;;;13.20;99.90;;;;;;5075247;28;20622;-81
2023/09/25 04:16:16;;;;;;;5.95;2.60;;;13.20;99.90;;;;;;5073066;28;20119;-81
2023/09/25 04:18:45;;;;;;;4.38;2.10;;;13.20;99.90;;;;;;5074756;28;20484;-81
2023/09/25 04:21:11;;;;;;;5.78;2.95;;;13.20;99.90;;;;;;5075153;28;20400;-81
2023/09/25 04:23:37;;;;;;;7.05;2.55;;;13.10;99.90;;;;;;5072507;28;20032;-81
2023/09/25 04:26:04;;;;;;;5.13;2.60;;;13.10;99.90;;;;;;5057321;28;20029;-81
2023/09/25 04:28:30;;;;;;;3.75;2.22;;;13.10;99.90;;;;;;5057123;28;20087;-81
2023/09/25 04:30:59;;;;;;;7.75;2.90;;;13.10;99.90;;;;;;5074760;28;20072;-81
2023/09/25 04:33:26;;;;;;;6.93;3.05;;;13.10;99.90;;;;;;5058249;28;20033;-81
2023/09/25 04:35:58;;;;;;;6.88;3.08;;;13.00;99.90;;;;;;5056668;28;20059;-81
2023/09/25 04:38:25;;;;;;;6.75;3.03;;;12.90;99.90;;;;;;5043742;28;20044;-81
2023/09/25 04:40:51;;;;;;;5.65;2.72;;;12.80;99.90;;;;;;5038161;28;20375;-81
2023/09/25 04:43:17;;;;;;;9.05;3.00;;;12.80;99.90;;;;;;5038202;28;20123;-81
2023/09/25 04:45:43;;;;;;;6.28;2.70;;;12.80;99.90;;;;;;5042615;28;20111;-81
2023/09/25 04:48:09;;;;;;;5.95;2.80;;;12.90;99.90;;;;;;5073508;28;20132;-81
2023/09/25 04:50:36;;;;;;;5.20;2.42;;;13.00;99.90;;;;;;5057534;28;20040;-81
2023/09/25 04:53:03;;;;;;;6.00;2.80;;;13.10;99.90;;;;;;5057690;28;20044;-81
2023/09/25 04:55:28;;;;;;;5.75;2.40;;;13.10;99.90;;;;;;5069563;28;20064;-81
2023/09/25 04:57:54;;;;;;;6.18;2.70;;;13.00;99.90;;;;;;5057666;28;20044;-81
2023/09/25 05:00:24;;;;;;;7.70;2.47;;;13.00;99.90;;;;;;5057850;28;20382;-81
2023/09/25 05:02:50;;;;;;;5.82;2.58;;;13.10;99.90;;;;;;5057042;28;20120;-79
2023/09/25 05:05:17;;;;;;;6.30;2.40;;;13.20;99.90;;;;;;5057404;28;20032;-81
2023/09/25 05:07:43;;;;;;;5.57;2.72;;;13.00;99.90;;;;;;5089963;28;20037;-81
2023/09/25 05:10:10;;;;;;;7.40;2.70;;;12.90;99.90;;;;;;5090307;28;20111;-81
2023/09/25 05:12:37;;;;;;;4.88;2.67;;;12.90;99.90;;;;;;5073875;28;20093;-80
2023/09/25 05:15:03;;;;;;;7.00;2.60;;;12.80;99.90;;;;;;5072963;28;20083;-80
2023/09/25 05:17:29;;;;;;;5.80;2.80;;;12.80;99.90;;;;;;5054649;28;20048;-81
2023/09/25 05:19:54;;;;;;;5.68;2.85;;;12.80;99.90;;;;;;5051716;28;20036;-81
2023/09/25 05:22:20;;;;;;;6.90;2.80;;;12.80;99.90;;;;;;5056841;28;20040;-80
2023/09/25 05:24:46;;;;;;;5.13;2.55;;;12.90;99.90;;;;;;5057041;28;20485;-80
2023/09/25 05:27:11;;;;;;;7.53;2.90;;;12.80;99.90;;;;;;5056278;28;20408;-80
2023/09/25 05:29:37;;;;;;;7.47;2.63;;;12.70;99.90;;;;;;5056263;28;20094;-80
2023/09/25 05:32:04;;;;;;;6.72;2.60;;;12.70;99.90;;;;;;5057183;28;20044;-80
2023/09/25 05:34:30;;;;;;;7.70;2.70;;;12.80;99.90;;;;;;5056266;28;20404;-80
2023/09/25 05:36:56;;;;;;;5.13;2.42;;;12.80;99.90;;;;;;5055890;28;20043;-80
2023/09/25 05:39:24;;;;;;;7.07;3.30;;;12.70;99.90;;;;;;5072327;28;20115;-80
2023/09/25 05:41:50;;;;;;;6.63;2.60;;;12.70;99.90;;;;;;5072566;28;20036;-80
2023/09/25 05:44:16;;;;;;;5.53;2.53;;;12.70;99.90;;;;;;5073342;28;20036;-80
2023/09/25 05:46:41;;;;;;;4.95;2.42;;;12.70;99.90;;;;;;5071885;28;20039;-80
2023/09/25 05:49:07;;;;;;;3.97;2.30;;;12.80;99.90;;;;;;5070761;28;20119;-81
2023/09/25 05:51:33;;;;;;;5.82;2.85;;;12.80;99.90;;;;;;5086199;28;20094;-80
2023/09/25 05:53:59;;;;;;;8.05;3.17;;;12.80;99.90;;;;;;5086688;28;20531;-80
2023/09/25 05:56:25;;;;;;;6.28;2.42;;;12.80;99.90;;;;;;5036476;28;20045;-80
2023/09/25 05:58:52;;;;;;;5.40;2.40;;;12.90;99.90;;;;;;5052876;28;20036;-80
2023/09/25 06:01:18;;;;;;;4.95;2.67;;;12.90;99.90;;;;;;5063609;28;20040;-80
2023/09/25 06:03:43;;;;;;;6.03;2.55;;;12.80;99.90;;;;;;5051004;28;20720;-80
2023/09/25 06:06:09;;;;;;;4.88;2.30;;;12.90;99.90;;;;;;5068222;28;20162;-80
2023/09/25 06:08:34;;;;;;;8.18;2.70;;;12.90;99.90;;;;;;5056043;28;20607;-80
2023/09/25 06:11:04;;;;;;;7.07;2.83;;;13.00;99.90;;;;;;5057813;28;20068;-80
2023/09/25 06:13:33;;;;;;;6.10;2.88;;;13.00;99.90;;;;;;5052960;28;20374;-80
2023/09/25 06:15:58;;;;;;;5.85;2.65;;;13.00;99.90;;;;;;5067442;28;20043;-80
2023/09/25 06:18:24;;;;;;;5.03;2.50;;;13.10;99.90;;;;;;5072049;28;20040;-80
2023/09/25 06:20:50;;;;;;;5.18;2.60;;;13.10;99.90;;;;;;5052425;28;20024;-80
2023/09/25 06:23:16;;;;;;;5.18;2.33;;;13.10;99.90;;;;;;5061277;28;20171;-80
2023/09/25 06:25:42;;;;;;;6.07;2.58;;;13.10;99.90;;;;;;5053424;28;20532;-80
2023/09/25 06:28:08;;;;;;;6.53;2.70;;;13.00;99.90;;;;;;5055186;28;20393;-80
2023/09/25 06:30:34;;;;;;;4.40;2.55;;;13.10;99.90;;;;;;5054081;28;20051;-80
2023/09/25 06:33:00;;;;;;;4.88;2.15;;;13.20;99.90;;;;;;5069382;28;20048;-80
2023/09/25 06:35:26;;;;;;;7.22;2.70;;;13.30;99.90;;;;;;5063177;28;20044;-80
2023/09/25 06:37:51;;;;;;;6.28;2.38;;;13.20;99.90;;;;;;5066869;28;20051;-80
2023/09/25 06:40:19;;;;;;;5.97;2.50;;;13.20;99.90;;;;;;5051800;28;20043;-80
2023/09/25 06:42:44;;;;;;;6.78;2.45;;;13.20;99.90;;;;;;5052125;28;20116;-80
2023/09/25 06:45:10;;;;;;;6.65;2.60;;;13.20;99.90;;;;;;5051950;28;20124;-80
2023/09/25 06:47:36;;;;;;;8.30;2.83;;;13.30;99.90;;;;;;5035065;28;20041;-80
2023/09/25 06:50:03;;;;;;;4.50;2.00;;;13.20;99.90;;;;;;5048235;28;20090;-80
2023/09/25 06:52:29;;;;;;;6.35;2.60;;;13.30;99.90;;;;;;5071681;28;20055;-80
2023/09/25 06:54:56;;;;;;;3.92;2.33;;;13.30;99.90;;;;;;5069526;28;20118;-80
2023/09/25 06:57:21;;;;;;;6.40;2.83;;;13.30;99.90;;;;;;5067816;28;20051;-80
2023/09/25 06:59:47;;;;;;;6.03;2.45;;;13.30;99.90;;;;;;5088522;28;20044;-80
2023/09/25 07:02:12;;;;;;;6.85;2.75;;;13.30;99.90;;;;;;5070249;28;20040;-80
2023/09/25 07:04:38;;;;;;;7.03;2.55;;;13.30;99.90;;;;;;5058967;28;20117;-80
2023/09/25 07:07:05;;;;;;;6.00;2.72;;;13.30;99.90;;;;;;5066945;28;20044;-80
2023/09/25 07:09:31;;;;;;;5.78;2.80;;;13.40;99.90;;;;;;5054659;28;20047;-80
2023/09/25 07:11:56;;;;;;;7.18;2.50;;;13.40;99.90;;;;;;5048114;28;20044;-80
2023/09/25 07:14:22;;;;;;;4.90;2.10;;;13.40;99.90;;;;;;5067343;28;20045;-80
2023/09/25 07:16:48;;;;;;;4.45;2.30;;;13.40;99.90;;;;;;5053564;28;20392;-80
2023/09/25 07:19:14;;;;;;;7.07;2.45;;;13.50;99.90;;;;;;5046576;28;20029;-80
2023/09/25 07:21:40;;;;;;;6.95;2.47;;;13.50;99.90;;;;;;5045438;28;20044;-80
2023/09/25 07:24:07;;;;;;;5.15;2.40;;;13.50;99.90;;;;;;5054752;28;20066;-81
2023/09/25 07:26:32;;;;;;;5.10;2.42;;;13.50;99.90;;;;;;5068555;28;20476;-80
2023/09/25 07:28:58;;;;;;;4.95;2.20;;;13.60;99.90;;;;;;5052258;28;20048;-80
2023/09/25 07:31:24;;;;;;;5.28;2.25;;;13.60;99.90;;;;;;5039743;28;20041;-80
2023/09/25 07:33:52;;;;;;;6.53;2.30;;;13.60;99.90;;;;;;5047354;28;20062;-80
2023/09/25 07:36:20;;;;;;;6.28;2.40;;;13.70;99.90;;;;;;5052155;28;20115;-80
2023/09/25 07:38:46;;;;;;;5.47;2.25;;;13.80;99.90;;;;;;5065014;28;20113;-79
2023/09/25 07:41:12;;;;;;;4.28;2.13;;;13.80;99.90;;;;;;5068052;28;20094;-79
2023/09/25 07:43:38;;;;;;;6.20;2.30;;;13.90;99.90;;;;;;5047355;28;20489;-79
2023/09/25 07:46:04;;;;;;;8.63;2.70;;;13.90;99.90;;;;;;5050876;28;20116;-79
2023/09/25 07:48:30;;;;;;;5.00;2.22;;;13.90;99.90;;;;;;5054801;28;20037;-79
2023/09/25 07:50:58;;;;;;;5.72;2.63;;;13.90;99.90;;;;;;5071446;28;20045;-79
2023/09/25 07:53:28;;;;;;;6.18;2.65;;;14.00;99.90;;;;;;5038700;28;20076;-79
2023/09/25 07:55:54;;;;;;;5.00;2.22;;;14.00;99.90;;;;;;5066526;28;20509;-79
2023/09/25 07:58:19;;;;;;;8.70;2.10;;;14.10;99.90;;;;;;5058333;28;20041;-79
2023/09/25 08:00:47;;;;;;;6.32;2.30;;;14.10;99.90;;;;;;5052681;28;20067;-79
2023/09/25 08:03:17;;;;;;;6.95;2.30;;;14.20;99.90;;;;;;5057983;28;20111;-79
2023/09/25 08:05:43;;;;;;;5.65;2.28;;;14.20;99.90;;;;;;5066720;28;20032;-79
2023/09/25 08:08:12;;;;;;;5.32;2.20;;;14.40;99.90;;;;;;5079043;28;20059;-79
2023/09/25 08:10:41;;;;;;;5.20;2.08;;;14.40;99.90;;;;;;5073219;28;20044;-79
2023/09/25 08:13:08;;;;;;;5.78;2.15;;;14.50;99.90;;;;;;5073729;28;20405;-79
2023/09/25 08:15:35;;;;;;;5.85;2.42;;;14.50;99.90;;;;;;5038239;28;20041;-79
2023/09/25 08:18:01;;;;;;;4.25;2.10;;;14.70;99.90;;;;;;5059769;28;20032;-79
2023/09/25 08:20:27;;;;;;;4.97;2.17;;;14.70;99.90;;;;;;5069971;28;20530;-79
2023/09/25 08:22:53;;;;;;;4.47;2.08;;;14.80;99.90;;;;;;5058084;28;20580;-78
2023/09/25 08:25:20;;;;;;;5.95;2.38;;;14.80;99.90;;;;;;5056256;28;20040;-77
2023/09/25 08:27:46;;;;;;;4.65;2.22;;;14.90;99.90;;;;;;5050818;28;20051;-79
2023/09/25 08:30:13;;;;;;;5.13;1.75;;;14.90;99.90;;;;;;5073631;28;20036;-80
2023/09/25 08:32:38;;;;;;;6.13;2.33;;;15.00;99.90;;;;;;5051067;28;20078;-80
2023/09/25 08:35:05;;;;;;;5.45;2.10;;;15.10;99.90;;;;;;5055703;28;20115;-79
2023/09/25 08:37:31;;;;;;;5.75;2.30;;;15.30;99.90;;;;;;5068066;28;20509;-79
2023/09/25 08:39:57;;;;;;;5.55;2.17;;;15.30;99.90;;;;;;5057306;28;20037;-79
2023/09/25 08:42:25;;;;;;;4.43;2.10;;;15.50;99.90;;;;;;5055949;28;20043;-79
2023/09/25 08:44:52;;;;;;;5.70;2.10;;;15.60;99.90;;;;;;5073068;28;20033;-79
2023/09/25 08:47:22;;;;;;;6.30;2.20;;;15.70;99.90;;;;;;5054116;28;20037;-79
2023/09/25 08:49:52;;;;;;;5.80;2.20;;;15.70;99.90;;;;;;5057505;28;20044;-79
2023/09/25 08:52:21;;;;;;;7.93;2.05;;;15.80;99.90;;;;;;5065312;28;20044;-80
2023/09/25 08:54:48;;;;;;;5.97;2.28;;;15.90;99.90;;;;;;5077158;28;20049;-79
2023/09/25 08:57:15;;;;;;;5.80;2.00;;;15.90;99.90;;;;;;5051672;28;20068;-79
2023/09/25 08:59:44;;;;;;;7.00;2.22;;;16.00;99.90;;;;;;5072161;28;20044;-79
2023/09/25 09:02:10;;;;;;;5.28;2.63;;;16.10;99.90;;;;;;5072509;28;20041;-79
2023/09/25 09:04:36;;;;;;;5.57;2.05;;;16.20;99.90;;;;;;5073011;28;20044;-79
2023/09/25 09:07:04;;;;;;;5.28;1.83;;;16.30;99.90;;;;;;5053949;28;20392;-79
2023/09/25 09:09:29;;;;;;;4.78;1.88;;;16.50;99.90;;;;;;5056157;28;20040;-79
2023/09/25 09:11:57;;;;;;;3.58;1.67;;;16.50;99.90;;;;;;5062669;28;20089;-80
2023/09/25 09:14:33;;;;;;;4.88;1.90;;;16.60;99.90;;;;;;5068015;28;20120;-79
2023/09/25 09:17:00;;;;;;;5.43;2.22;;;16.60;99.90;;;;;;5068638;28;20048;-79
2023/09/25 09:19:25;;;;;;;5.07;2.00;;;16.60;99.90;;;;;;5056075;28;20078;-79
2023/09/25 09:22:08;;;;;;;5.97;2.00;;;16.60;99.90;;;;;;5056427;28;20068;-80
2023/09/25 09:24:37;;;;;;;6.30;2.00;;;16.70;99.90;;;;;;5052740;28;20489;-79
2023/09/25 09:27:07;;;;;;;4.35;1.70;;;16.70;99.90;;;;;;5055020;28;20128;-79
2023/09/25 09:29:37;;;;;;;4.63;1.98;;;16.80;99.90;;;;;;5055962;28;20048;-79
2023/09/25 09:32:04;;;;;;;7.65;2.03;;;16.90;99.90;;;;;;5051836;28;20448;-79
2023/09/25 09:34:30;;;;;;;5.25;1.90;;;16.90;99.90;;;;;;5089701;28;20503;-79
2023/09/25 09:36:56;;;;;;;5.93;1.90;;;17.00;99.90;;;;;;5073169;28;20044;-79
2023/09/25 09:39:25;;;;;;;5.38;2.10;;;17.10;99.90;;;;;;5056250;28;20040;-79
2023/09/25 09:41:52;;;;;;;4.85;1.88;;;17.10;99.90;;;;;;5056190;28;20036;-79
2023/09/25 09:44:18;;;;;;;5.20;2.00;;;17.10;99.90;;;;;;5073019;28;20439;-80
2023/09/25 09:46:46;;;;;;;4.32;1.80;;;17.10;99.90;;;;;;5056330;28;20467;-79
2023/09/25 09:49:20;;;;;;;4.38;1.67;;;17.20;99.90;;;;;;5056200;28;20036;-80
2023/09/25 09:51:48;;;;;;;5.72;1.80;;;17.10;99.90;;;;;;5056062;28;20036;-80
2023/09/25 09:54:16;;;;;;;5.07;1.80;;;17.20;99.90;;;;;;5056463;28;20033;-79
2023/09/25 09:56:42;;;;;;;6.20;1.95;;;17.20;99.90;;;;;;5055619;28;20048;-79
2023/09/25 09:59:09;;;;;;;4.47;1.90;;;17.30;99.90;;;;;;5054613;28;20405;-79
2023/09/25 10:01:36;;;;;;;5.13;2.00;;;17.30;99.90;;;;;;5072353;28;20496;-79
2023/09/25 10:04:03;;;;;;;6.30;2.20;;;17.30;99.90;;;;;;5053073;28;20072;-79
2023/09/25 10:06:29;;;;;;;6.45;1.92;;;17.40;99.90;;;;;;5066364;28;20044;-79
2023/09/25 10:09:00;;;;;;;5.75;2.08;;;17.40;99.90;;;;;;5054610;28;20036;-79
2023/09/25 10:11:25;;;;;;;4.88;1.88;;;17.40;99.90;;;;;;5055446;28;20043;-79
2023/09/25 10:13:55;;;;;;;6.72;2.10;;;17.40;99.90;;;;;;5055574;28;20040;-79
2023/09/25 10:16:20;;;;;;;5.55;2.08;;;17.40;99.90;;;;;;5072680;28;20059;-79
2023/09/25 10:18:52;;;;;;;5.43;1.70;;;17.50;99.90;;;;;;5070068;28;20044;-79
2023/09/25 10:21:17;;;;;;;7.85;2.40;;;17.60;99.90;;;;;;5080445;28;20089;-79
2023/09/25 10:23:47;;;;;;;6.90;2.17;;;17.60;99.90;;;;;;5072390;28;20037;-79
2023/09/25 10:26:33;;;;;;;6.05;1.92;;;17.70;99.90;;;;;;5055431;28;20044;-79
2023/09/25 10:29:13;;;;;;;4.32;1.75;;;17.70;99.90;;;;;;5051479;28;20051;-79
2023/09/25 10:31:38;;;;;;;5.07;2.20;;;17.60;99.90;;;;;;5062124;28;20131;-78
2023/09/25 10:34:08;;;;;;;7.53;2.15;;;17.60;99.90;;;;;;5051819;28;20123;-85
2023/09/25 10:36:40;;;;;;;4.10;1.88;;;17.60;99.90;;;;;;5058150;28;20102;-81
2023/09/25 10:39:13;;;;;;;5.15;1.70;;;17.70;99.90;;;;;;5049997;28;20037;-81
2023/09/25 10:41:39;;;;;;;5.72;1.80;;;17.70;99.90;;;;;;5054774;28;20071;-81
2023/09/25 10:44:05;;;;;;;4.82;1.73;;;17.70;99.90;;;;;;5053045;28;20064;-81
2023/09/25 10:46:31;;;;;;;6.90;2.10;;;17.70;99.90;;;;;;5069548;28;20043;-81
2023/09/25 10:48:57;;;;;;;5.10;2.58;;;17.80;99.90;;;;;;5055551;28;20036;-81
2023/09/25 10:51:23;;;;;;;7.55;2.00;;;17.80;99.90;;;;;;5071858;28;20068;-81
2023/09/25 10:53:48;;;;;;;4.32;1.95;;;17.80;99.90;;;;;;5057017;28;20076;-82
2023/09/25 10:56:16;;;;;;;4.68;1.67;;;17.90;99.90;;;;;;5066551;28;20084;-81
2023/09/25 10:58:47;;;;;;;5.00;2.38;;;17.80;99.90;;;;;;5045059;28;20079;-82
2023/09/25 11:01:14;;;;;;;7.38;2.03;;;17.90;99.90;;;;;;5053755;28;20085;-81
2023/09/25 11:03:39;;;;;;;4.97;1.90;;;17.90;99.90;;;;;;5054275;28;20450;-81
2023/09/25 11:06:06;;;;;;;4.43;2.00;;;18.00;99.90;;;;;;5065912;28;20040;-82
2023/09/25 11:08:34;;;;;;;4.82;1.80;;;18.10;99.90;;;;;;5064345;28;20043;-81
2023/09/25 11:11:01;;;;;;;5.18;1.95;;;18.00;99.90;;;;;;5065940;28;20052;-81
2023/09/25 11:13:27;;;;;;;6.60;2.10;;;18.00;99.90;;;;;;5039379;28;20497;-82
2023/09/25 11:15:53;;;;;;;5.78;2.17;;;18.00;99.90;;;;;;5048329;28;20048;-81
2023/09/25 11:18:19;;;;;;;5.10;2.22;;;18.10;99.90;;;;;;5067655;28;20044;-81
2023/09/25 11:20:45;;;;;;;5.70;2.13;;;18.10;99.90;;;;;;5054916;28;20033;-82
2023/09/25 11:23:16;;;;;;;5.18;1.90;;;18.10;99.90;;;;;;5065992;28;20104;-81
2023/09/25 11:25:46;;;;;;;5.65;2.08;;;18.10;99.90;;;;;;5054353;28;20041;-81
2023/09/25 11:28:24;;;;;;;5.30;2.13;;;18.20;99.90;;;;;;5067376;28;20493;-81
2023/09/25 11:30:50;;;;;;;5.05;1.83;;;18.10;99.90;;;;;;5074465;28;20051;-81
2023/09/25 11:33:20;;;;;;;6.28;2.03;;;18.20;99.90;;;;;;5055647;28;20062;-81
2023/09/25 11:35:49;;;;;;;6.25;2.08;;;18.20;99.90;;;;;;5049207;28;20493;-81
2023/09/25 11:38:17;;;;;;;6.45;2.05;;;18.30;99.90;;;;;;5056616;28;20475;-81
2023/09/25 11:40:44;;;;;;;4.78;2.10;;;18.30;99.90;;;;;;5056335;28;20107;-80
2023/09/25 11:43:10;;;;;;;6.25;2.13;;;18.30;99.90;;;;;;5072182;28;20135;-81
2023/09/25 11:45:37;;;;;;;4.63;2.13;;;18.30;99.90;;;;;;5054152;28;20082;-81
2023/09/25 11:48:03;;;;;;;4.45;1.83;;;18.30;99.90;;;;;;5073149;28;20044;-81
2023/09/25 11:50:29;;;;;;;7.43;1.92;;;18.40;99.90;;;;;;5054909;28;20037;-81
2023/09/25 11:52:55;;;;;;;4.72;2.00;;;18.40;99.90;;;;;;5071644;28;20040;-81
2023/09/25 11:55:20;;;;;;;5.47;2.05;;;18.40;99.90;;;;;;5071141;28;20056;-81
2023/09/25 11:57:46;;;;;;;5.13;1.90;;;18.50;99.90;;;;;;5056665;28;20047;-81
2023/09/25 12:00:18;;;;;;;6.03;1.98;;;18.60;99.90;;;;;;5067794;28;20036;-81
2023/09/25 12:02:46;;;;;;;4.05;1.55;;;18.60;99.90;;;;;;5071669;28;20067;-80
2023/09/25 12:05:12;;;;;;;6.20;1.70;;;18.60;99.90;;;;;;5052714;28;20115;-80
2023/09/25 12:07:38;;;;;;;5.47;2.05;;;18.70;99.90;;;;;;5081726;28;20044;-80
2023/09/25 12:10:08;;;;;;;5.15;1.77;;;18.80;99.90;;;;;;5055870;28;20512;-80
2023/09/25 12:12:38;;;;;;;3.75;1.50;;;18.80;99.90;;;;;;5083905;28;20406;-81
2023/09/25 12:15:05;;;;;;;6.03;2.00;;;18.80;99.90;;;;;;5067753;28;20045;-80
2023/09/25 12:17:31;;;;;;;5.75;2.13;;;18.80;99.90;;;;;;5055407;28;20508;-81
2023/09/25 12:20:01;;;;;;;6.43;2.10;;;18.80;99.90;;;;;;5053747;28;20033;-81
2023/09/25 12:22:29;;;;;;;5.03;1.65;;;19.00;99.90;;;;;;5052085;28;20047;-81
2023/09/25 12:24:55;;;;;;;7.00;2.38;;;19.00;99.90;;;;;;5061843;28;20044;-80
2023/09/25 12:27:20;;;;;;;5.63;1.75;;;19.00;99.90;;;;;;5049334;28;20041;-81
2023/09/25 12:29:46;;;;;;;6.55;2.20;;;19.00;99.90;;;;;;5035829;28;20047;-81
2023/09/25 12:32:12;;;;;;;6.80;1.70;;;18.80;99.90;;;;;;5053823;28;20045;-80
2023/09/25 12:34:39;;;;;;;4.55;1.88;;;18.80;99.90;;;;;;5074672;28;20037;-80
2023/09/25 12:37:05;;;;;;;4.70;1.70;;;18.90;99.90;;;;;;5075168;28;20044;-80
2023/09/25 12:39:31;;;;;;;4.65;1.80;;;18.90;99.90;;;;;;5050924;28;20044;-80
2023/09/25 12:41:57;;;;;;;4.25;1.80;;;18.90;99.90;;;;;;5084807;28;20036;-80
2023/09/25 12:44:22;;;;;;;5.72;2.00;;;18.90;99.90;;;;;;5074169;28;20040;-81